Data for 02/13/2018

Time Sea-Level Adjusted Pressure Absolute Pressure Temperature Relative Humidity Dew Point   
(mb) (inHg) (mb) (inHg) (C) (F) (%) (C) (F)
00:05 1020 30.12 849 25.07 -16.5 2.4 69 -20.8 -5.5
00:10 1020 30.12 849 25.07 -16.8 1.8 71 -21 -5.7
00:15 1020 30.12 849 25.07 -17.3 0.9 72 -21.1 -6
00:20 1020 30.12 849 25.07 -17.2 1.1 72 -21.1 -5.9
00:25 1020 30.12 849 25.07 -17.2 1.1 72 -21.1 -5.9
00:30 1020 30.12 850 25.1 -17.2 1.1 73 -20.9 -5.6
00:35 1020 30.12 850 25.1 -16.9 1.6 71 -21 -5.7
00:40 1020 30.12 849 25.07 -17.1 1.2 73 -20.9 -5.6
00:45 1020 30.12 849 25.07 -17.2 1 72 -21.2 -6.1
00:50 1020 30.12 849 25.07 -17.4 0.7 74 -21 -5.8
00:55 1020 30.12 849 25.07 -17.1 1.3 73 -20.8 -5.4
01:00 1020 30.12 849 25.07 -16.9 1.6 73 -20.7 -5.2
01:05 1020 30.12 849 25.07 -16.9 1.7 73 -20.6 -5.1
01:10 1020 30.12 849 25.07 -16.8 1.7 72 -20.7 -5.3
01:15 1020 30.12 849 25.07 -16.6 2.1 71 -20.7 -5.3
01:20 1020 30.12 849 25.07 -16.4 2.5 71 -20.5 -5
01:25 1020 30.12 849 25.07 -16.4 2.4 70 -20.7 -5.2
01:30 1020 30.12 849 25.07 -16.6 2.1 71 -20.7 -5.3
01:35 1019 30.09 849 25.07 -16.9 1.5 71 -21 -5.8
01:40 1019 30.09 849 25.07 -17.4 0.7 73 -21.2 -6.1
01:45 1019 30.09 849 25.07 -17.6 0.3 74 -21.2 -6.1
01:50 1019 30.09 849 25.07 -17.4 0.6 75 -20.9 -5.7
01:55 1019 30.09 849 25.07 -17.1 1.2 74 -20.8 -5.4
02:00 1019 30.09 849 25.07 -16.9 1.6 72 -20.7 -5.3
02:05 1019 30.09 849 25.07 -16.8 1.7 74 -20.5 -4.9
02:10 1019 30.09 849 25.07 -16.9 1.5 72 -20.8 -5.5
02:15 1019 30.09 849 25.07 -17.5 0.6 74 -21 -5.8
02:20 1020 30.12 849 25.07 -17.3 0.9 74 -20.8 -5.4
02:25 1020 30.12 849 25.07 -16.9 1.6 73 -20.6 -5.1
02:30 1020 30.12 849 25.07 -16.7 1.9 73 -20.4 -4.8
02:35 1020 30.12 849 25.07 -16.6 2.2 73 -20.3 -4.6
02:40 1020 30.12 849 25.07 -16.4 2.5 75 -19.9 -3.8
02:45 1020 30.12 849 25.07 -16.4 2.5 78 -19.4 -3
02:50 1020 30.12 849 25.07 -16.4 2.6 75 -19.8 -3.7
02:55 1020 30.12 849 25.07 -16.3 2.8 74 -19.9 -3.8
03:00 1020 30.12 849 25.07 -16.1 3.1 73 -19.8 -3.7
03:05 1020 30.12 849 25.07 -16.1 3.1 80 -18.7 -1.7
03:10 1020 30.12 849 25.07 -16.5 2.3 81 -19 -2.2
03:15 1020 30.12 849 25.07 -16.3 2.7 76 -19.6 -3.2
03:20 1020 30.12 849 25.07 -16.1 2.9 76 -19.5 -3.1
03:25 1020 30.12 849 25.07 -15.8 3.5 75 -19.4 -2.9
03:30 1020 30.12 849 25.07 -15.6 4 73 -19.4 -3
03:35 1020 30.12 849 25.07 -16.1 3.1 70 -20.3 -4.5
03:40 1020 30.12 849 25.07 -17.2 1.1 73 -21 -5.8
03:45 1020 30.12 849 25.07 -17.8 -0 77 -20.9 -5.6
03:50 1020 30.12 849 25.07 -17.7 0.1 79 -20.6 -5.1
03:55 1020 30.12 849 25.07 -17.6 0.2 76 -20.9 -5.6
04:00 1020 30.12 849 25.07 -17.4 0.7 77 -20.6 -5
04:05 1020 30.12 849 25.07 -17 1.4 76 -20.2 -4.4
04:10 1020 30.12 849 25.07 -16.8 1.8 76 -20.1 -4.2
04:15 1020 30.12 849 25.07 -16.9 1.6 79 -19.8 -3.6
04:20 1019 30.09 849 25.07 -17.2 1.1 82 -19.6 -3.3
04:25 1019 30.09 849 25.07 -17.3 0.9 80 -20 -4
04:30 1019 30.09 849 25.07 -17 1.4 76 -20.2 -4.4
04:35 1019 30.09 849 25.07 -16.8 1.7 76 -20.1 -4.2
04:40 1019 30.09 849 25.07 -16.1 3 73 -19.9 -3.9
04:45 1019 30.09 848 25.04 -15.7 3.7 70 -20 -4.1
04:50 1019 30.09 848 25.04 -15.4 4.4 68 -20 -4
04:55 1019 30.09 848 25.04 -15.5 4 68 -20.2 -4.4
05:00 1019 30.09 848 25.04 -15.6 4 68 -20.3 -4.5
05:05 1019 30.09 848 25.04 -15.2 4.7 67 -20 -4
05:10 1019 30.09 848 25.04 -14.7 5.5 66 -19.8 -3.7
05:15 1019 30.09 848 25.04 -14.8 5.4 65 -19.9 -3.8
05:20 1019 30.09 848 25.04 -14.9 5.1 66 -19.9 -3.8
05:25 1019 30.09 848 25.04 -15.1 4.9 67 -19.9 -3.8
05:30 1019 30.09 848 25.04 -15.5 4.2 67 -20.2 -4.3
05:35 1019 30.09 848 25.04 -15.8 3.5 71 -20 -3.9
05:40 1019 30.09 848 25.04 -15.6 3.9 68 -20.2 -4.4
05:45 1019 30.09 848 25.04 -15.6 4 72 -19.5 -3.1
05:50 1019 30.09 848 25.04 -15.7 3.8 72 -19.6 -3.3
05:55 1019 30.09 848 25.04 -15.4 4.3 71 -19.5 -3.1
06:00 1019 30.09 848 25.04 -15.2 4.7 71 -19.4 -2.9
06:05 1019 30.09 848 25.04 -15.3 4.5 71 -19.4 -3
06:10 1019 30.09 848 25.04 -15.6 4 72 -19.5 -3.1
06:15 1019 30.09 848 25.04 -15.1 4.8 72 -19.2 -2.5
06:20 1019 30.09 848 25.04 -14.6 5.8 70 -18.9 -2
06:25 1019 30.09 848 25.04 -14.5 6 69 -18.9 -2
06:30 1019 30.09 848 25.04 -14.5 6 69 -18.9 -2.1
06:35 1019 30.09 848 25.04 -14.4 6 68 -19 -2.3
06:40 1019 30.09 848 25.04 -14.9 5.2 69 -19.4 -2.9
06:45 1019 30.09 848 25.04 -15.4 4.3 73 -19.2 -2.6
06:50 1019 30.09 848 25.04 -15.9 3.4 74 -19.6 -3.2
06:55 1019 30.09 848 25.04 -16.2 2.8 75 -19.7 -3.5
07:00 1019 30.09 849 25.07 -16 3.3 75 -19.5 -3.1
07:05 1019 30.09 849 25.07 -16 3.3 76 -19.3 -2.8
07:10 1019 30.09 849 25.07 -15.5 4.1 74 -19.2 -2.5
07:15 1019 30.09 849 25.07 -15.1 4.7 72 -19.1 -2.3
07:20 1019 30.09 849 25.07 -14.9 5.2 72 -18.9 -2.1
07:25 1019 30.09 849 25.07 -14.7 5.5 71 -18.8 -1.9
07:30 1019 30.09 849 25.07 -14.4 6.1 70 -18.7 -1.7
07:35 1020 30.12 849 25.07 -14.7 5.5 73 -18.5 -1.3
07:40 1020 30.12 849 25.07 -14.7 5.6 73 -18.6 -1.4
07:45 1020 30.12 849 25.07 -14.7 5.5 71 -18.9 -1.9
07:50 1020 30.12 849 25.07 -14.6 5.8 70 -18.8 -1.9
07:55 1020 30.12 849 25.07 -14 6.9 67 -18.8 -1.9
08:00 1020 30.12 849 25.07 -13.5 7.8 67 -18.3 -1
08:05 1020 30.12 849 25.07 -13.7 7.4 67 -18.5 -1.3
08:10 1020 30.12 849 25.07 -13 8.6 66 -18.2 -0.7
08:15 1020 30.12 849 25.07 -12.7 9.1 62 -18.6 -1.5
08:20 1020 30.12 849 25.07 -12.3 9.9 64 -17.7 0.1
08:25 1020 30.12 849 25.07 -12 10.4 61 -18 -0.4
08:30 1020 30.12 849 25.07 -11.6 11.1 62 -17.6 0.4
08:35 1020 30.12 850 25.1 -11 12.2 59 -17.6 0.4
08:40 1020 30.12 850 25.1 -10.7 12.8 58 -17.5 0.4
08:45 1020 30.12 850 25.1 -10.3 13.4 56 -17.5 0.6
08:50 1021 30.15 850 25.1 -10.8 12.6 58 -17.5 0.4
08:55 1021 30.15 850 25.1 -10.7 12.8 58 -17.4 0.6
09:00 1021 30.15 850 25.1 -10.5 13.1 59 -17 1.5
09:05 1021 30.15 850 25.1 -10.4 13.2 60 -16.8 1.8
09:10 1021 30.15 850 25.1 -10.1 13.8 57 -17.1 1.2
09:15 1021 30.15 850 25.1 -9.8 14.4 56 -17.1 1.2
09:20 1021 30.15 850 25.1 -9.5 14.9 54 -17.1 1.1
09:25 1021 30.15 850 25.1 -9.1 15.6 52 -17.2 1
09:30 1021 30.15 850 25.1 -9 15.9 51 -17.3 0.8
09:35 1021 30.15 850 25.1 -8.5 16.7 52 -16.8 1.8
09:40 1021 30.15 850 25.1 -8.1 17.4 51 -16.6 2.1
09:45 1021 30.15 850 25.1 -7.6 18.3 47 -17 1.4
09:50 1021 30.15 850 25.1 -7.7 18.1 47 -17.1 1.3
09:55 1021 30.15 850 25.1 -7.8 17.9 49 -16.8 1.7
10:00 1021 30.15 850 25.1 -7 19.5 46 -16.8 1.8
10:05 1021 30.15 850 25.1 -6.8 19.7 47 -16.5 2.4
10:10 1021 30.15 850 25.1 -6.9 19.6 47 -16.5 2.3
10:15 1021 30.15 850 25.1 -6.8 19.8 45 -16.8 1.8
10:20 1021 30.15 850 25.1 -6.1 21.1 43 -16.7 1.9
10:25 1021 30.15 850 25.1 -5.6 21.9 41 -16.9 1.5
10:30 1021 30.15 850 25.1 -5.3 22.5 40 -16.9 1.6
10:35 1021 30.15 850 25.1 -5.5 22.1 41 -16.6 2.1
10:40 1021 30.15 850 25.1 -5.5 22.2 40 -17.1 1.2
10:45 1021 30.15 850 25.1 -5.3 22.4 42 -16.4 2.5
10:50 1021 30.15 850 25.1 -5.8 21.5 42 -16.8 1.7
10:55 1021 30.15 850 25.1 -6 21.2 43 -16.8 1.7
11:00 1021 30.15 850 25.1 -6.2 20.8 43 -16.7 1.9
11:05 1021 30.15 850 25.1 -5.5 22.1 42 -16.5 2.3
11:10 1021 30.15 850 25.1 -4.5 23.9 39 -16.5 2.4
11:15 1021 30.15 850 25.1 -3.6 25.6 37 -16.2 2.8
11:20 1021 30.15 850 25.1 -3.4 26 36 -16.5 2.4
11:25 1021 30.15 850 25.1 -4.3 24.2 40 -16.1 2.9
11:30 1021 30.15 850 25.1 -4.2 24.5 38 -16.6 2.1
11:35 1021 30.15 850 25.1 -3.8 25.2 36 -16.9 1.6
11:40 1021 30.15 850 25.1 -4.1 24.6 38 -16.4 2.4
11:45 1021 30.15 850 25.1 -3.9 24.9 37 -16.8 1.8
11:50 1021 30.15 850 25.1 -4.2 24.5 39 -16.3 2.7
11:55 1021 30.15 850 25.1 -3.7 25.4 40 -15.5 4.1
12:00 1021 30.15 850 25.1 -3.2 26.2 35 -16.7 1.9
12:05 1021 30.15 850 25.1 -2.9 26.7 33 -17.1 1.2
12:10 1021 30.15 850 25.1 -2.5 27.5 34 -16.3 2.6
12:15 1021 30.15 850 25.1 -2 28.4 32 -16.5 2.4
12:20 1021 30.15 850 25.1 -2 28.5 33 -16.3 2.7
12:25 1020 30.12 850 25.1 -2 28.4 32 -16.5 2.3
12:30 1020 30.12 850 25.1 -1.7 29 34 -15.5 4.2
12:35 1020 30.12 850 25.1 -1.6 29.1 35 -15.3 4.5
12:40 1020 30.12 850 25.1 -2.5 27.6 34 -16.4 2.4
12:45 1020 30.12 849 25.07 -2.9 26.8 34 -16.5 2.2
12:50 1020 30.12 850 25.1 -3.1 26.5 36 -16.2 2.9
12:55 1020 30.12 850 25.1 -2.9 26.9 35 -16.3 2.7
13:00 1020 30.12 850 25.1 -2.3 27.8 34 -16.3 2.6
13:05 1020 30.12 849 25.07 -1.9 28.5 34 -16 3.2
13:10 1020 30.12 849 25.07 -1.8 28.7 31 -16.9 1.5
13:15 1020 30.12 849 25.07 -1.9 28.6 32 -16.4 2.4
13:20 1020 30.12 849 25.07 -2 28.4 34 -16 3.2
13:25 1020 30.12 849 25.07 -1.6 29.2 33 -16 3.2
13:30 1020 30.12 849 25.07 -1.1 30 33 -15.6 3.9
13:35 1020 30.12 849 25.07 -1.3 29.6 34 -15.3 4.5
13:40 1020 30.12 849 25.07 -1.4 29.5 33 -15.6 3.9
13:45 1020 30.12 849 25.07 -0.9 30.4 31 -16 3.2
13:50 1020 30.12 849 25.07 -0.5 31.1 32 -15.3 4.5
13:55 1020 30.12 849 25.07 0 32 33 -14.5 5.9
14:00 1020 30.12 849 25.07 0.5 33 30 -15.2 4.7
14:05 1020 30.12 849 25.07 1 33.8 30 -14.7 5.5
14:10 1020 30.12 849 25.07 0.8 33.5 31 -14.7 5.6
14:15 1020 30.12 849 25.07 0.8 33.4 29 -15.3 4.4
14:20 1020 30.12 849 25.07 0.6 33 28 -15.8 3.6
14:25 1020 30.12 849 25.07 1 33.8 28 -15.7 3.7
14:30 1020 30.12 849 25.07 0.7 33.3 29 -15.2 4.6
14:35 1020 30.12 849 25.07 1.2 34.1 27 -15.9 3.3
14:40 1020 30.12 849 25.07 1.8 35.2 25 -16.4 2.5
14:45 1019 30.09 849 25.07 2.3 36.1 26 -15.4 4.2
14:50 1019 30.09 849 25.07 2.4 36.3 26 -15.2 4.7
14:55 1019 30.09 849 25.07 2.6 36.7 26 -15.2 4.7
15:00 1019 30.09 849 25.07 2.9 37.2 25 -15.4 4.3
15:05 1019 30.09 849 25.07 3.3 37.9 25 -15.1 4.9
15:10 1019 30.09 848 25.04 3.3 38 25 -14.7 5.5
15:15 1019 30.09 848 25.04 3.2 37.7 25 -15.2 4.6
15:20 1019 30.09 849 25.07 3 37.5 25 -15.4 4.3
15:25 1019 30.09 848 25.04 2.8 37 24 -15.8 3.6
15:30 1019 30.09 848 25.04 3 37.4 24 -15.7 3.8
15:35 1019 30.09 848 25.04 3.1 37.6 25 -15.3 4.5
15:40 1019 30.09 848 25.04 3.3 37.9 24 -15.5 4.1
15:45 1019 30.09 848 25.04 3.2 37.7 25 -15.2 4.6
15:50 1019 30.09 848 25.04 3.5 38.2 24 -15.4 4.2
15:55 1019 30.09 848 25.04 3.3 38 24 -15.4 4.3
16:00 1019 30.09 848 25.04 3.4 38.2 23 -15.9 3.4
16:05 1019 30.09 848 25.04 3.1 37.6 25 -15.3 4.5
16:10 1019 30.09 848 25.04 3 37.3 24 -15.7 3.8
16:15 1019 30.09 848 25.04 2.8 37 24 -16.1 2.9
16:20 1019 30.09 848 25.04 2.5 36.5 24 -16.1 3.1
16:25 1019 30.09 848 25.04 3 37.4 24 -15.9 3.4
16:30 1019 30.09 848 25.04 3 37.4 23 -16 3.2
16:35 1019 30.09 848 25.04 2.9 37.1 24 -15.7 3.8
16:40 1019 30.09 848 25.04 2.9 37.3 25 -15.5 4.1
16:45 1019 30.09 848 25.04 3.1 37.5 23 -16.1 3.1
16:50 1019 30.09 848 25.04 2.8 37 25 -15.5 4.1
16:55 1019 30.09 848 25.04 2.8 37.1 24 -15.7 3.8
17:00 1019 30.09 848 25.04 2.6 36.6 25 -15.5 4.1
17:05 1019 30.09 848 25.04 2.6 36.6 25 -15.5 4.2
17:10 1019 30.09 848 25.04 2.6 36.6 25 -15.6 4
17:15 1019 30.09 848 25.04 2.1 35.8 27 -15.2 4.6
17:20 1019 30.09 848 25.04 2.2 35.9 27 -15.2 4.7
17:25 1019 30.09 848 25.04 2.4 36.2 26 -15.2 4.6
17:30 1019 30.09 848 25.04 2.4 36.3 26 -15.1 4.8
17:35 1019 30.09 848 25.04 2.3 36.2 27 -14.6 5.6
17:40 1019 30.09 848 25.04 2.2 36 27 -14.9 5.3
17:45 1019 30.09 848 25.04 1.9 35.4 29 -14.5 5.9
17:50 1019 30.09 848 25.04 1.4 34.5 31 -14.2 6.5
17:55 1019 30.09 848 25.04 0.9 33.6 33 -13.8 7.2
18:00 1019 30.09 848 25.04 0.1 32.2 36 -13.4 7.9
18:05 1019 30.09 848 25.04 -0.6 30.8 38 -13.2 8.3
18:10 1018 30.06 848 25.04 -0.7 30.7 37 -13.7 7.4
18:15 1018 30.06 848 25.04 -0.6 30.9 40 -12.7 9.1
18:20 1018 30.06 848 25.04 -1.3 29.6 39 -13.5 7.7
18:25 1018 30.06 848 25.04 -1.3 29.7 43 -12.2 10
18:30 1018 30.06 848 25.04 -1.3 29.6 39 -13.5 7.6
18:35 1018 30.06 848 25.04 -1.5 29.3 41 -13 8.6
18:40 1018 30.06 848 25.04 -1.8 28.8 43 -12.9 8.9
18:45 1018 30.06 848 25.04 -2.1 28.2 44 -12.9 8.9
18:50 1018 30.06 848 25.04 -2.3 27.9 44 -13.1 8.5
18:55 1018 30.06 848 25.04 -2.2 28.1 42 -13.6 7.6
19:00 1018 30.06 848 25.04 -1.9 28.6 41 -13.6 7.5
19:05 1018 30.06 848 25.04 -1.9 28.5 41 -13.6 7.6
19:10 1018 30.06 847 25.01 -2.1 28.3 41 -13.6 7.5
19:15 1018 30.06 847 25.01 -2.2 28 43 -13.2 8.3
19:20 1018 30.06 847 25.01 -2.4 27.7 42 -13.6 7.5
19:25 1018 30.06 847 25.01 -2.2 28 42 -13.6 7.5
19:30 1018 30.06 847 25.01 -2.2 28.1 41 -13.6 7.5
19:35 1018 30.06 847 25.01 -2.1 28.2 41 -13.8 7.2
19:40 1018 30.06 847 25.01 -1.8 28.8 41 -13.4 7.8
19:45 1018 30.06 847 25.01 -2.1 28.3 43 -13 8.5
19:50 1018 30.06 847 25.01 -2.5 27.5 46 -12.7 9.1
19:55 1018 30.06 847 25.01 -2.7 27.2 44 -13.2 8.2
20:00 1018 30.06 847 25.01 -2.6 27.3 43 -13.5 7.8
20:05 1018 30.06 847 25.01 -2.4 27.6 43 -13.3 8.1
20:10 1018 30.06 847 25.01 -2.5 27.4 45 -13 8.6
20:15 1017 30.03 847 25.01 -2.9 26.7 47 -12.8 9
20:20 1017 30.03 847 25.01 -3 26.6 46 -13 8.6
20:25 1017 30.03 846 24.98 -3 26.6 45 -13.4 7.9
20:30 1017 30.03 846 24.98 -3.1 26.4 46 -13.3 8.1
20:35 1017 30.03 846 24.98 -3.3 26 48 -12.9 8.8
20:40 1017 30.03 846 24.98 -3.5 25.8 46 -13.4 7.9
20:45 1017 30.03 846 24.98 -3.3 26.1 45 -13.6 7.5
20:50 1017 30.03 846 24.98 -3.1 26.4 44 -13.6 7.5
20:55 1017 30.03 846 24.98 -3.2 26.2 46 -13.4 7.9
21:00 1017 30.03 846 24.98 -3.2 26.3 45 -13.4 7.9
21:05 1017 30.03 846 24.98 -3.1 26.5 47 -12.9 8.7
21:10 1017 30.03 846 24.98 -3.4 25.9 49 -12.6 9.4
21:15 1017 30.03 846 24.98 -3.6 25.5 50 -12.7 9.2
21:20 1017 30.03 846 24.98 -3.4 25.9 49 -12.6 9.3
21:25 1017 30.03 846 24.98 -3.3 26.1 49 -12.6 9.3
21:30 1017 30.03 846 24.98 -3 26.5 48 -12.6 9.4
21:35 1017 30.03 846 24.98 -2.8 26.9 47 -12.6 9.3
21:40 1016 30 846 24.98 -3 26.7 48 -12.4 9.7
21:45 1016 30 846 24.98 -3.1 26.4 49 -12.4 9.8
21:50 1016 30 846 24.98 -3.4 25.9 50 -12.4 9.7
21:55 1016 30 845 24.95 -3.7 25.4 51 -12.4 9.6
22:00 1016 30 845 24.95 -3.7 25.3 51 -12.5 9.5
22:05 1016 30 845 24.95 -3.8 25.2 52 -12.4 9.8
22:10 1016 30 845 24.95 -4 24.8 52 -12.4 9.7
22:15 1016 30 845 24.95 -3.9 25 51 -12.5 9.4
22:20 1016 30 845 24.95 -3.6 25.5 51 -12.3 9.9
22:25 1016 30 845 24.95 -3.4 25.9 51 -12.1 10.3
22:30 1016 30 845 24.95 -3.6 25.4 52 -12.1 10.2
22:35 1016 30 845 24.95 -3.6 25.6 51 -12.3 9.9
22:40 1016 30 845 24.95 -3.4 25.9 51 -12.1 10.2
22:45 1016 30 845 24.95 -3.2 26.2 51 -12.1 10.3
22:50 1016 30 845 24.95 -3.2 26.2 51 -12.1 10.2
22:55 1016 30 845 24.95 -3.4 25.9 51 -12 10.3
23:00 1015 29.97 845 24.95 -3.1 26.5 50 -12.1 10.3
23:05 1015 29.97 845 24.95 -3.1 26.4 51 -11.8 10.8
23:10 1015 29.97 845 24.95 -3.3 26.1 52 -11.9 10.6
23:15 1015 29.97 845 24.95 -3.6 25.6 52 -11.9 10.5
23:20 1015 29.97 844 24.92 -3.6 25.4 52 -12.1 10.2
23:25 1015 29.97 844 24.92 -3.4 25.9 51 -12.1 10.2
23:30 1015 29.97 844 24.92 -3.2 26.3 51 -12 10.4
23:35 1015 29.97 844 24.92 -3.2 26.3 51 -11.9 10.6
23:40 1015 29.97 844 24.92 -3.1 26.3 50 -12 10.3
23:45 1015 29.97 844 24.92 -2.8 26.9 50 -11.8 10.7
23:50 1015 29.97 844 24.92 -3 26.6 51 -11.8 10.8
23:55 1015 29.97 844 24.92 -3.1 26.4 51 -11.8 10.8
24:00 1015 29.97 844 24.92 -3 26.5 51 -11.9 10.6